Terminal Aerodrome Forecast
Issued by NWS Twin Cities, MN

Home | Current Version | Previous Version | Graphics & Text | Print | Product List | Glossary On
Versions: 1 2 3 4 5 6 7 8 9 10 11 12 13 14 15 16 17 18 19 20 21 22 23 24 25 26 27 28 29
374
FTUS43 KMPX 240859 AAB
TAFMSP
TAF AMD
KMSP 240859Z 2409/2512 33010KT P6SM OVC006
      TEMPO 2409/2410 SCT006 BKN015
     FM241000 31008KT P6SM SCT020 BKN250
     FM241600 30011G18KT P6SM FEW050 SCT250
     FM250100 29006KT P6SM FEW250=

USA.gov is the U.S. government's official web portal to all federal, state and local government web resources and services.